KAVX Airport Information

Runway Information
Runway 04 Length 3000 ft width 60 ft
Elevation 1602 ft Threshold 120 ft Heading 54
Runway 22 Length 3000 ft Width 60 ft
Elevation 1602 ft Threshold 149 ft Heading 234
Airport Frequencies
Type A/D Name SOCAL APP/ Frequency 127.4 MHZ
Type UNIC Name CTAF/UNICO Frequency 122.7 MHZ
Airport Navaids
Airport Weather Information & NOTAM
ADDS - METARS form results

(0856 UTC 16 December 2018)
Data provider http://aviationweather.gov/metar/data/
 
METAR text: KAVX 160851Z AUTO 00000KT 10SM CLR 16/M06 A3012 RMK AO2 SLP186 T01561061 58006
Conditions at: KAVX (AVALON , CA, US) observed 0851 UTC 16 December 2018
Temperature: 15.6°C (60°F)
Dewpoint: -6.1°C (21°F) [RH = 22%]
Pressure (altimeter): 30.12 inches Hg (1020.1 mb)
[Sea-level pressure: 1018.6 mb]
Winds: calm
Visibility: 10 or more miles (16+ km)
Ceiling: at least 12,000 feet AGL
Clouds: sky clear below 12,000 feet AGL
Weather: automated observation with no human augmentation;
there may or may not be significant weather present at this time